Time,TemperatureF,DewpointF,PressureIn,WindDirection,WindDirectionDegrees,WindSpeedMPH,WindSpeedGustMPH,Humidity,HourlyPrecipIn,Conditions,Clouds,dailyrainin,SoftwareType,DateUTC
2013-05-28 00:00:00,53.6,48.0,29.84,West,270,0.0,0.0,81,0.00,,,0.00,WUHU216HW,2013-05-28 07:00:00,
2013-05-28 00:05:00,53.6,48.3,29.84,West,270,0.0,0.0,82,0.00,,,0.00,WUHU216HW,2013-05-28 07:05:00,
2013-05-28 00:10:00,53.5,48.2,29.84,West,270,0.0,0.0,82,0.00,,,0.00,WUHU216HW,2013-05-28 07:10:00,
2013-05-28 00:15:00,53.5,48.2,29.84,West,270,0.0,0.0,82,0.00,,,0.00,WUHU216HW,2013-05-28 07:15:00,
2013-05-28 00:20:00,53.5,48.2,29.84,West,270,0.0,0.0,82,0.00,,,0.00,WUHU216HW,2013-05-28 07:20:00,
2013-05-28 00:25:00,53.5,48.2,29.83,West,270,0.0,0.0,82,0.00,,,0.00,WUHU216HW,2013-05-28 07:25:00,
2013-05-28 00:30:00,53.3,48.0,29.83,West,270,0.0,0.0,82,0.00,,,0.00,WUHU216HW,2013-05-28 07:30:00,
2013-05-28 00:35:00,53.3,48.0,29.83,West,270,0.0,0.0,82,0.00,,,0.00,WUHU216HW,2013-05-28 07:35:00,
2013-05-28 00:40:00,53.3,48.0,29.83,West,270,0.0,0.0,82,0.00,,,0.00,WUHU216HW,2013-05-28 07:40:00,
2013-05-28 00:45:00,53.3,48.0,29.83,West,270,0.0,0.0,82,0.00,,,0.00,WUHU216HW,2013-05-28 07:45:00,
2013-05-28 00:50:00,53.3,48.0,29.83,West,270,0.2,0.2,82,0.00,,,0.00,WUHU216HW,2013-05-28 07:50:00,
2013-05-28 00:55:00,53.3,48.0,29.83,West,270,0.0,0.4,82,0.00,,,0.00,WUHU216HW,2013-05-28 07:55:00,
2013-05-28 01:00:00,53.5,48.2,29.83,West,270,0.4,0.4,82,0.00,,,0.00,WUHU216HW,2013-05-28 08:00:00,
2013-05-28 01:05:00,53.5,48.2,29.83,West,270,0.0,0.4,82,0.00,,,0.00,WUHU216HW,2013-05-28 08:05:00,
2013-05-28 01:10:00,53.5,48.2,29.83,West,270,0.0,0.4,82,0.00,,,0.00,WUHU216HW,2013-05-28 08:10:00,
2013-05-28 01:15:00,53.3,48.0,29.83,West,270,0.0,0.0,82,0.00,,,0.00,WUHU216HW,2013-05-28 08:15:00,
2013-05-28 01:20:00,53.1,47.8,29.83,West,270,0.0,0.0,82,0.00,,,0.00,WUHU216HW,2013-05-28 08:20:00,
2013-05-28 01:25:00,53.1,47.8,29.83,West,270,0.0,0.0,82,0.00,,,0.00,WUHU216HW,2013-05-28 08:25:00,
2013-05-28 01:30:00,52.9,47.6,29.83,West,270,0.0,0.0,82,0.00,,,0.00,WUHU216HW,2013-05-28 08:30:00,
2013-05-28 01:35:00,52.9,47.6,29.83,West,270,0.0,0.0,82,0.00,,,0.00,WUHU216HW,2013-05-28 08:35:00,
2013-05-28 01:40:00,52.9,47.6,29.83,West,270,0.0,0.0,82,0.00,,,0.00,WUHU216HW,2013-05-28 08:40:00,
2013-05-28 01:45:00,52.9,47.6,29.83,West,270,0.0,0.0,82,0.00,,,0.00,WUHU216HW,2013-05-28 08:45:00,
2013-05-28 01:50:00,52.9,47.6,29.83,West,270,0.0,0.0,82,0.00,,,0.00,WUHU216HW,2013-05-28 08:50:00,
2013-05-28 01:55:00,52.9,47.9,29.83,West,270,0.0,0.0,83,0.00,,,0.00,WUHU216HW,2013-05-28 08:55:00,
2013-05-28 02:00:00,52.7,47.7,29.84,West,270,0.0,0.0,83,0.00,,,0.00,WUHU216HW,2013-05-28 09:00:00,
2013-05-28 02:05:00,52.9,47.9,29.83,West,270,0.0,0.0,83,0.00,,,0.00,WUHU216HW,2013-05-28 09:05:00,
2013-05-28 02:10:00,52.9,47.9,29.83,West,270,0.0,0.0,83,0.00,,,0.00,WUHU216HW,2013-05-28 09:10:00,
2013-05-28 02:15:00,52.9,47.9,29.83,West,270,0.0,0.0,83,0.00,,,0.00,WUHU216HW,2013-05-28 09:15:00,
2013-05-28 02:20:00,52.9,47.9,29.83,West,270,0.0,0.0,83,0.00,,,0.00,WUHU216HW,2013-05-28 09:20:00,
2013-05-28 02:25:00,52.9,47.9,29.83,West,270,0.4,0.7,83,0.00,,,0.00,WUHU216HW,2013-05-28 09:25:00,
2013-05-28 02:30:00,52.7,47.7,29.83,West,270,0.0,0.9,83,0.00,,,0.00,WUHU216HW,2013-05-28 09:30:00,
2013-05-28 02:35:00,52.7,47.7,29.83,West,270,0.0,0.9,83,0.00,,,0.00,WUHU216HW,2013-05-28 09:35:00,
2013-05-28 02:40:00,52.7,47.4,29.83,WSW,248,0.4,1.3,82,0.00,,,0.00,WUHU216HW,2013-05-28 09:40:00,
2013-05-28 02:45:00,52.7,47.7,29.84,West,270,0.0,1.3,83,0.00,,,0.00,WUHU216HW,2013-05-28 09:45:00,
2013-05-28 02:50:00,52.6,47.5,29.84,West,270,1.3,1.3,83,0.00,,,0.00,WUHU216HW,2013-05-28 09:50:00,
2013-05-28 02:55:00,52.6,47.5,29.84,West,270,0.7,1.8,83,0.00,,,0.00,WUHU216HW,2013-05-28 09:55:00,
2013-05-28 03:00:00,52.4,47.3,29.84,West,270,0.0,1.8,83,0.00,,,0.00,WUHU216HW,2013-05-28 10:00:00,
2013-05-28 03:05:00,52.4,47.3,29.84,West,270,0.0,0.9,83,0.00,,,0.00,WUHU216HW,2013-05-28 10:05:00,
2013-05-28 03:10:00,52.4,47.3,29.84,West,270,0.0,0.0,83,0.00,,,0.00,WUHU216HW,2013-05-28 10:10:00,
2013-05-28 03:15:00,52.4,47.3,29.84,West,270,0.0,0.0,83,0.00,,,0.00,WUHU216HW,2013-05-28 10:15:00,
2013-05-28 03:20:00,52.4,47.3,29.85,West,270,0.0,0.0,83,0.00,,,0.00,WUHU216HW,2013-05-28 10:20:00,
2013-05-28 03:25:00,52.4,47.3,29.85,West,270,0.2,0.9,83,0.00,,,0.00,WUHU216HW,2013-05-28 10:25:00,
2013-05-28 03:30:00,52.4,47.3,29.85,West,270,0.0,0.9,83,0.00,,,0.00,WUHU216HW,2013-05-28 10:30:00,
2013-05-28 03:35:00,52.4,47.3,29.85,West,270,0.0,0.2,83,0.00,,,0.00,WUHU216HW,2013-05-28 10:35:00,
2013-05-28 03:40:00,52.2,47.2,29.85,West,270,0.0,0.0,83,0.00,,,0.00,WUHU216HW,2013-05-28 10:40:00,
2013-05-28 03:45:00,52.2,47.2,29.85,West,270,0.0,0.0,83,0.00,,,0.00,WUHU216HW,2013-05-28 10:45:00,
2013-05-28 03:50:00,52.0,47.0,29.85,WSW,248,0.0,0.4,83,0.00,,,0.00,WUHU216HW,2013-05-28 10:50:00,
2013-05-28 03:55:00,52.0,47.0,29.85,WSW,248,0.0,0.4,83,0.00,,,0.00,WUHU216HW,2013-05-28 10:55:00,
2013-05-28 04:00:00,52.0,47.4,29.85,WSW,248,0.0,0.0,84,0.00,,,0.00,WUHU216HW,2013-05-28 11:00:00,
2013-05-28 04:05:00,51.8,47.2,29.85,WSW,248,0.0,0.0,84,0.00,,,0.00,WUHU216HW,2013-05-28 11:05:00,
2013-05-28 04:10:00,51.8,47.2,29.85,WSW,248,0.0,0.0,84,0.00,,,0.00,WUHU216HW,2013-05-28 11:10:00,
2013-05-28 04:15:00,51.8,47.2,29.85,WSW,248,0.0,0.0,84,0.00,,,0.00,WUHU216HW,2013-05-28 11:15:00,
2013-05-28 04:20:00,51.7,47.0,29.85,WSW,248,0.0,0.0,84,0.00,,,0.00,WUHU216HW,2013-05-28 11:20:00,
2013-05-28 04:25:00,51.7,47.0,29.85,WSW,248,0.0,0.0,84,0.00,,,0.00,WUHU216HW,2013-05-28 11:25:00,
2013-05-28 04:30:00,51.7,47.0,29.85,WSW,248,0.0,0.0,84,0.00,,,0.00,WUHU216HW,2013-05-28 11:30:00,
2013-05-28 04:35:00,51.7,47.0,29.86,WSW,248,0.0,0.0,84,0.00,,,0.00,WUHU216HW,2013-05-28 11:35:00,
2013-05-28 04:40:00,51.7,47.0,29.86,SW,225,0.2,0.2,84,0.00,,,0.00,WUHU216HW,2013-05-28 11:40:00,
2013-05-28 04:45:00,51.8,47.2,29.86,SW,225,0.0,0.2,84,0.00,,,0.00,WUHU216HW,2013-05-28 11:45:00,
2013-05-28 04:50:00,51.8,47.2,29.86,SW,225,0.0,0.2,84,0.00,,,0.00,WUHU216HW,2013-05-28 11:50:00,
2013-05-28 04:55:00,51.8,47.2,29.86,SW,225,0.0,0.0,84,0.00,,,0.00,WUHU216HW,2013-05-28 11:55:00,
2013-05-28 05:00:00,51.8,47.2,29.86,SW,225,0.0,0.0,84,0.00,,,0.00,WUHU216HW,2013-05-28 12:00:00,
2013-05-28 05:05:00,51.7,47.0,29.86,SW,225,0.0,0.0,84,0.00,,,0.00,WUHU216HW,2013-05-28 12:05:00,
2013-05-28 05:10:00,51.7,47.0,29.86,SW,225,0.0,0.0,84,0.00,,,0.00,WUHU216HW,2013-05-28 12:10:00,
2013-05-28 05:15:00,51.5,46.8,29.86,SW,225,0.0,0.0,84,0.00,,,0.00,WUHU216HW,2013-05-28 12:15:00,
2013-05-28 05:20:00,51.5,46.8,29.86,SW,225,0.0,0.0,84,0.00,,,0.00,WUHU216HW,2013-05-28 12:20:00,
2013-05-28 05:25:00,51.5,46.8,29.86,SW,225,0.0,0.0,84,0.00,,,0.00,WUHU216HW,2013-05-28 12:25:00,
2013-05-28 05:30:00,51.7,47.3,29.86,SW,225,0.0,0.0,85,0.00,,,0.00,WUHU216HW,2013-05-28 12:30:00,
2013-05-28 05:35:00,51.7,47.3,29.86,SW,225,0.0,0.0,85,0.00,,,0.00,WUHU216HW,2013-05-28 12:35:00,
2013-05-28 05:40:00,51.7,47.3,29.86,WNW,293,1.1,1.1,85,0.00,,,0.00,WUHU216HW,2013-05-28 12:40:00,
2013-05-28 05:45:00,51.7,47.3,29.85,WNW,293,0.0,1.1,85,0.00,,,0.00,WUHU216HW,2013-05-28 12:45:00,
2013-05-28 05:50:00,51.7,47.3,29.86,WNW,293,0.0,1.1,85,0.00,,,0.00,WUHU216HW,2013-05-28 12:50:00,
2013-05-28 05:55:00,51.8,47.4,29.86,WNW,293,0.0,0.0,85,0.00,,,0.00,WUHU216HW,2013-05-28 12:55:00,
2013-05-28 06:00:00,52.0,47.6,29.85,WNW,293,0.0,0.0,85,0.00,,,0.00,WUHU216HW,2013-05-28 13:00:00,
2013-05-28 06:05:00,52.2,47.8,29.86,West,270,0.0,0.7,85,0.00,,,0.00,WUHU216HW,2013-05-28 13:05:00,
2013-05-28 06:10:00,52.4,47.7,29.85,West,270,0.2,1.8,84,0.00,,,0.00,WUHU216HW,2013-05-28 13:10:00,
2013-05-28 06:15:00,52.4,47.7,29.85,West,270,0.0,1.8,84,0.00,,,0.00,WUHU216HW,2013-05-28 13:15:00,
2013-05-28 06:20:00,52.4,47.7,29.85,West,270,1.1,2.5,84,0.00,,,0.00,WUHU216HW,2013-05-28 13:20:00,
2013-05-28 06:25:00,52.4,47.7,29.85,West,270,0.4,2.5,84,0.00,,,0.00,WUHU216HW,2013-05-28 13:25:00,
2013-05-28 06:30:00,52.4,47.7,29.85,SE,135,1.1,1.8,84,0.00,,,0.00,WUHU216HW,2013-05-28 13:30:00,
2013-05-28 06:35:00,52.6,47.9,29.85,West,270,0.0,1.8,84,0.00,,,0.00,WUHU216HW,2013-05-28 13:35:00,
2013-05-28 06:40:00,52.7,48.1,29.85,WSW,248,2.2,2.2,84,0.00,,,0.00,WUHU216HW,2013-05-28 13:40:00,
2013-05-28 06:45:00,52.9,48.3,29.85,West,270,0.9,2.2,84,0.00,,,0.00,WUHU216HW,2013-05-28 13:45:00,
2013-05-28 06:50:00,52.9,48.3,29.85,West,270,1.8,2.7,84,0.00,,,0.00,WUHU216HW,2013-05-28 13:50:00,
2013-05-28 06:55:00,53.1,48.4,29.85,West,270,0.2,2.7,84,0.00,,,0.00,WUHU216HW,2013-05-28 13:55:00,
2013-05-28 07:00:00,53.3,48.6,29.85,WNW,293,0.7,2.0,84,0.00,,,0.00,WUHU216HW,2013-05-28 14:00:00,
2013-05-28 07:05:00,53.5,48.8,29.85,West,270,0.4,2.0,84,0.00,,,0.00,WUHU216HW,2013-05-28 14:05:00,
2013-05-28 07:10:00,53.6,49.0,29.85,WSW,248,0.4,1.3,84,0.00,,,0.00,WUHU216HW,2013-05-28 14:10:00,
2013-05-28 07:15:00,53.8,48.8,29.85,WSW,248,0.0,1.3,83,0.00,,,0.00,WUHU216HW,2013-05-28 14:15:00,
2013-05-28 07:20:00,54.0,48.6,29.85,WSW,248,1.3,4.0,82,0.00,,,0.00,WUHU216HW,2013-05-28 14:20:00,
2013-05-28 07:25:00,54.0,48.6,29.85,West,270,0.4,4.0,82,0.00,,,0.00,WUHU216HW,2013-05-28 14:25:00,
2013-05-28 07:30:00,54.0,48.6,29.85,West,270,1.1,2.2,82,0.00,,,0.00,WUHU216HW,2013-05-28 14:30:00,
2013-05-28 07:35:00,54.0,48.6,29.85,NW,315,1.6,2.9,82,0.00,,,0.00,WUHU216HW,2013-05-28 14:35:00,
2013-05-28 07:40:00,54.2,48.8,29.85,WNW,293,0.0,2.9,82,0.00,,,0.00,WUHU216HW,2013-05-28 14:40:00,
2013-05-28 07:45:00,54.4,49.0,29.85,WSW,248,0.7,2.9,82,0.00,,,0.00,WUHU216HW,2013-05-28 14:45:00,
2013-05-28 07:50:00,54.4,48.7,29.85,WSW,248,1.3,4.7,81,0.00,,,0.00,WUHU216HW,2013-05-28 14:50:00,
2013-05-28 07:55:00,54.5,48.9,29.85,WNW,293,0.0,4.7,81,0.00,,,0.00,WUHU216HW,2013-05-28 14:55:00,
2013-05-28 08:00:00,54.7,49.0,29.85,West,270,1.1,2.0,81,0.00,,,0.00,WUHU216HW,2013-05-28 15:00:00,
2013-05-28 08:05:00,55.1,49.0,29.85,West,270,1.8,2.0,80,0.00,,,0.00,WUHU216HW,2013-05-28 15:05:00,
2013-05-28 08:10:00,55.1,49.0,29.85,NW,315,0.2,2.5,80,0.00,,,0.00,WUHU216HW,2013-05-28 15:10:00,
2013-05-28 08:15:00,55.1,49.0,29.85,SSW,203,1.3,2.5,80,0.00,,,0.00,WUHU216HW,2013-05-28 15:15:00,
2013-05-28 08:20:00,55.4,49.3,29.85,West,270,2.0,3.8,80,0.00,,,0.00,WUHU216HW,2013-05-28 15:20:00,
2013-05-28 08:25:00,55.6,49.9,29.85,East,90,0.4,3.8,81,0.00,,,0.00,WUHU216HW,2013-05-28 15:25:00,
2013-05-28 08:30:00,55.8,49.7,29.85,West,270,1.3,3.8,80,0.00,,,0.00,WUHU216HW,2013-05-28 15:30:00,
2013-05-28 08:35:00,56.0,49.9,29.85,WNW,293,1.1,3.8,80,0.00,,,0.00,WUHU216HW,2013-05-28 15:35:00,
2013-05-28 08:40:00,56.3,49.9,29.85,WNW,293,1.1,3.4,79,0.00,,,0.00,WUHU216HW,2013-05-28 15:40:00,
2013-05-28 08:45:00,56.3,49.9,29.85,WNW,293,1.3,4.0,79,0.00,,,0.00,WUHU216HW,2013-05-28 15:45:00,
2013-05-28 08:50:00,56.3,49.9,29.85,NW,315,0.0,4.0,79,0.00,,,0.00,WUHU216HW,2013-05-28 15:50:00,
2013-05-28 08:55:00,56.5,50.0,29.85,WSW,248,1.1,2.7,79,0.00,,,0.00,WUHU216HW,2013-05-28 15:55:00,
2013-05-28 09:00:00,56.7,49.9,29.85,West,270,0.9,2.7,78,0.00,,,0.00,WUHU216HW,2013-05-28 16:00:00,
2013-05-28 09:05:00,56.9,50.4,29.85,North,0,0.0,2.5,79,0.00,,,0.00,WUHU216HW,2013-05-28 16:05:00,
2013-05-28 09:10:00,56.9,50.0,29.85,WNW,293,1.6,2.9,78,0.00,,,0.00,WUHU216HW,2013-05-28 16:10:00,
2013-05-28 09:15:00,56.9,50.0,29.85,West,270,0.4,2.9,78,0.00,,,0.00,WUHU216HW,2013-05-28 16:15:00,
2013-05-28 09:20:00,56.9,49.7,29.85,WNW,293,1.1,2.9,77,0.00,,,0.00,WUHU216HW,2013-05-28 16:20:00,
2013-05-28 09:25:00,56.9,49.7,29.85,West,270,1.8,5.4,77,0.00,,,0.00,WUHU216HW,2013-05-28 16:25:00,
2013-05-28 09:30:00,57.2,50.0,29.85,West,270,2.9,5.4,77,0.00,,,0.00,WUHU216HW,2013-05-28 16:30:00,
2013-05-28 09:35:00,57.2,49.7,29.85,SW,225,2.5,3.8,76,0.00,,,0.00,WUHU216HW,2013-05-28 16:35:00,
2013-05-28 09:40:00,57.4,49.9,29.85,West,270,2.7,3.4,76,0.00,,,0.00,WUHU216HW,2013-05-28 16:40:00,
2013-05-28 09:45:00,57.8,50.2,29.85,WSW,248,0.7,3.6,76,0.00,,,0.00,WUHU216HW,2013-05-28 16:45:00,
2013-05-28 09:47:00,57.8,49.9,29.85,SW,225,0.2,3.6,75,0.00,,,0.00,WUHU216HW,2013-05-28 16:47:00,
2013-05-28 09:52:00,58.0,50.0,29.86,WSW,248,0.9,3.6,75,0.00,,,0.00,WUHU216HW,2013-05-28 16:52:00,
2013-05-28 09:57:00,58.3,50.0,29.86,WNW,293,3.6,3.6,74,0.00,,,0.00,WUHU216HW,2013-05-28 16:57:00,
2013-05-28 10:02:00,58.5,50.2,29.86,SE,135,0.4,6.5,74,0.00,,,0.00,WUHU216HW,2013-05-28 17:02:00,
2013-05-28 10:07:00,58.9,50.6,29.85,WNW,293,1.8,6.5,74,0.00,,,0.00,WUHU216HW,2013-05-28 17:07:00,
2013-05-28 10:13:00,59.4,50.8,29.86,South,180,0.7,2.5,73,0.00,,,0.00,WUHU216HW,2013-05-28 17:13:00,
2013-05-28 10:18:00,59.6,50.9,29.86,SW,225,2.2,3.4,73,0.00,,,0.00,WUHU216HW,2013-05-28 17:18:00,
2013-05-28 10:23:00,59.4,50.0,29.86,WSW,248,2.5,3.4,71,0.00,,,0.00,WUHU216HW,2013-05-28 17:23:00,
2013-05-28 10:28:00,59.8,50.8,29.86,WSW,248,1.3,2.7,72,0.00,,,0.00,WUHU216HW,2013-05-28 17:28:00,
2013-05-28 10:33:00,60.1,50.8,29.86,WSW,248,1.8,4.0,71,0.00,,,0.00,WUHU216HW,2013-05-28 17:33:00,
2013-05-28 10:38:00,60.5,50.8,29.86,WSW,248,1.3,4.0,70,0.00,,,0.00,WUHU216HW,2013-05-28 17:38:00,
2013-05-28 10:43:00,60.5,50.8,29.86,ENE,68,0.4,4.5,70,0.00,,,0.00,WUHU216HW,2013-05-28 17:43:00,
2013-05-28 10:48:00,60.8,50.7,29.86,WSW,248,0.4,4.5,69,0.00,,,0.00,WUHU216HW,2013-05-28 17:48:00,
2013-05-28 10:54:00,60.8,50.7,29.86,West,270,1.6,3.1,69,0.00,,,0.00,WUHU216HW,2013-05-28 17:54:00,
2013-05-28 10:59:00,61.0,50.9,29.86,West,270,1.6,4.7,69,0.00,,,0.00,WUHU216HW,2013-05-28 17:59:00,
2013-05-28 11:04:00,61.0,50.9,29.86,West,270,3.8,4.7,69,0.00,,,0.00,WUHU216HW,2013-05-28 18:04:00,
2013-05-28 11:09:00,61.0,50.5,29.86,West,270,2.2,4.7,68,0.00,,,0.00,WUHU216HW,2013-05-28 18:09:00,
2013-05-28 11:14:00,60.8,50.3,29.86,NNW,338,0.9,4.7,68,0.00,,,0.00,WUHU216HW,2013-05-28 18:14:00,
2013-05-28 11:19:00,60.7,50.1,29.86,WNW,293,3.6,4.3,68,0.00,,,0.00,WUHU216HW,2013-05-28 18:19:00,
2013-05-28 11:24:00,60.5,50.0,29.86,WNW,293,2.7,4.5,68,0.00,,,0.00,WUHU216HW,2013-05-28 18:24:00,
2013-05-28 11:29:00,60.1,50.0,29.85,WSW,248,2.5,5.4,69,0.00,,,0.00,WUHU216HW,2013-05-28 18:29:00,
2013-05-28 11:35:00,59.9,50.2,29.86,NW,315,4.5,6.5,70,0.00,,,0.00,WUHU216HW,2013-05-28 18:35:00,
2013-05-28 11:40:00,59.8,50.4,29.85,West,270,3.1,6.5,71,0.00,,,0.00,WUHU216HW,2013-05-28 18:40:00,
2013-05-28 11:45:00,59.6,50.9,29.86,WNW,293,2.0,6.5,73,0.00,,,0.00,WUHU216HW,2013-05-28 18:45:00,
2013-05-28 11:50:00,59.6,51.3,29.86,NW,315,1.1,3.4,74,0.00,,,0.00,WUHU216HW,2013-05-28 18:50:00,
2013-05-28 11:55:00,59.4,51.1,29.86,WNW,293,2.5,3.4,74,0.00,,,0.00,WUHU216HW,2013-05-28 18:55:00,
2013-05-28 12:00:00,59.4,51.5,29.86,WSW,248,0.2,4.3,75,0.00,,,0.00,WUHU216HW,2013-05-28 19:00:00,
2013-05-28 12:05:00,59.8,52.2,29.86,NW,315,1.1,4.3,76,0.00,,,0.00,WUHU216HW,2013-05-28 19:05:00,
2013-05-28 12:11:00,60.1,52.6,29.86,West,270,3.4,4.0,76,0.00,,,0.00,WUHU216HW,2013-05-28 19:11:00,
2013-05-28 12:16:00,60.5,52.6,29.86,West,270,0.7,3.4,75,0.00,,,0.00,WUHU216HW,2013-05-28 19:16:00,
2013-05-28 12:21:00,61.0,52.4,29.86,West,270,1.6,5.8,73,0.00,,,0.00,WUHU216HW,2013-05-28 19:21:00,
2013-05-28 12:26:00,60.8,51.8,29.86,West,270,0.4,5.8,72,0.00,,,0.00,WUHU216HW,2013-05-28 19:26:00,
2013-05-28 12:31:00,60.8,51.5,29.86,West,270,1.8,4.7,71,0.00,,,0.00,WUHU216HW,2013-05-28 19:31:00,
2013-05-28 12:36:00,60.8,51.8,29.86,WNW,293,1.8,4.7,72,0.00,,,0.00,WUHU216HW,2013-05-28 19:36:00,
2013-05-28 12:41:00,61.0,51.7,29.86,WNW,293,3.6,5.1,71,0.00,,,0.00,WUHU216HW,2013-05-28 19:41:00,
2013-05-28 12:46:00,61.4,51.9,29.86,WSW,248,0.7,4.9,71,0.00,,,0.00,WUHU216HW,2013-05-28 19:46:00,
2013-05-28 12:52:00,61.6,52.1,29.86,SW,225,1.1,4.7,71,0.00,,,0.00,WUHU216HW,2013-05-28 19:52:00,
2013-05-28 12:57:00,61.6,51.4,29.86,SW,225,1.3,3.8,69,0.00,,,0.00,WUHU216HW,2013-05-28 19:57:00,
2013-05-28 13:02:00,61.6,51.4,29.86,WSW,248,1.1,4.3,69,0.00,,,0.00,WUHU216HW,2013-05-28 20:02:00,
2013-05-28 13:07:00,61.7,51.5,29.86,WNW,293,4.9,4.9,69,0.00,,,0.00,WUHU216HW,2013-05-28 20:07:00,
2013-05-28 13:12:00,62.1,52.3,29.87,West,270,6.3,6.3,70,0.00,,,0.00,WUHU216HW,2013-05-28 20:12:00,
2013-05-28 13:17:00,62.6,52.3,29.87,SSW,203,5.4,6.3,69,0.00,,,0.00,WUHU216HW,2013-05-28 20:17:00,
2013-05-28 13:22:00,62.8,52.1,29.87,WSW,248,1.8,5.4,68,0.00,,,0.00,WUHU216HW,2013-05-28 20:22:00,
2013-05-28 13:28:00,63.0,52.3,29.87,West,270,6.0,6.0,68,0.00,,,0.00,WUHU216HW,2013-05-28 20:28:00,
2013-05-28 13:33:00,63.2,52.0,29.87,West,270,4.0,6.0,67,0.00,,,0.00,WUHU216HW,2013-05-28 20:33:00,
2013-05-28 13:38:00,63.0,51.8,29.87,WSW,248,2.5,4.0,67,0.00,,,0.00,WUHU216HW,2013-05-28 20:38:00,
2013-05-28 13:43:00,63.2,51.6,29.87,SW,225,2.9,5.1,66,0.00,,,0.00,WUHU216HW,2013-05-28 20:43:00,
2013-05-28 13:48:00,63.0,51.0,29.87,WSW,248,0.7,5.1,65,0.00,,,0.00,WUHU216HW,2013-05-28 20:48:00,
2013-05-28 13:53:00,63.0,50.6,29.87,SSE,158,2.2,4.5,64,0.00,,,0.00,WUHU216HW,2013-05-28 20:53:00,
2013-05-28 13:58:00,62.8,50.4,29.87,West,270,1.1,4.5,64,0.00,,,0.00,WUHU216HW,2013-05-28 20:58:00,
2013-05-28 14:03:00,63.0,50.6,29.87,WSW,248,0.4,4.9,64,0.00,,,0.00,WUHU216HW,2013-05-28 21:03:00,
2013-05-28 14:09:00,63.0,50.2,29.87,NW,315,0.4,4.9,63,0.00,,,0.00,WUHU216HW,2013-05-28 21:09:00,
2013-05-28 14:14:00,63.2,50.3,29.87,NNW,338,0.4,2.7,63,0.00,,,0.00,WUHU216HW,2013-05-28 21:14:00,
2013-05-28 14:19:00,63.5,50.7,29.87,West,270,3.1,3.4,63,0.00,,,0.00,WUHU216HW,2013-05-28 21:19:00,
2013-05-28 14:24:00,63.7,50.4,29.87,ESE,113,1.8,5.4,62,0.00,,,0.00,WUHU216HW,2013-05-28 21:24:00,
2013-05-28 14:29:00,63.9,50.6,29.87,WNW,293,1.6,5.4,62,0.00,,,0.00,WUHU216HW,2013-05-28 21:29:00,
2013-05-28 14:34:00,63.9,50.1,29.87,West,270,0.7,4.7,61,0.00,,,0.00,WUHU216HW,2013-05-28 21:34:00,
2013-05-28 14:39:00,64.3,51.0,29.87,WNW,293,2.2,4.0,62,0.00,,,0.00,WUHU216HW,2013-05-28 21:39:00,
2013-05-28 14:44:00,65.2,50.9,29.88,ENE,68,0.2,4.0,60,0.00,,,0.00,WUHU216HW,2013-05-28 21:44:00,
2013-05-28 14:45:00,65.2,50.9,29.88,ENE,68,0.2,4.0,60,0.00,,,0.00,WUHU216HW,2013-05-28 21:45:00,
2013-05-28 14:50:00,65.9,50.2,29.88,SSW,203,2.9,6.3,57,0.00,,,0.00,WUHU216HW,2013-05-28 21:50:00,
2013-05-28 14:55:00,65.7,50.5,29.88,West,270,4.0,6.3,58,0.00,,,0.00,WUHU216HW,2013-05-28 21:55:00,
2013-05-28 15:00:00,65.5,49.9,29.88,NNW,338,4.0,6.0,57,0.00,,,0.00,WUHU216HW,2013-05-28 22:00:00,
2013-05-28 15:05:00,65.0,49.8,29.88,West,270,3.1,6.5,58,0.00,,,0.00,WUHU216HW,2013-05-28 22:05:00,
2013-05-28 15:10:00,64.3,49.6,29.88,SW,225,1.8,6.5,59,0.00,,,0.00,WUHU216HW,2013-05-28 22:10:00,
2013-05-28 15:15:00,63.5,49.4,29.88,NE,45,1.1,5.8,60,0.00,,,0.00,WUHU216HW,2013-05-28 22:15:00,
2013-05-28 15:20:00,63.2,49.5,29.88,NW,315,1.3,3.1,61,0.00,,,0.00,WUHU216HW,2013-05-28 22:20:00,
2013-05-28 15:25:00,63.0,49.8,29.88,NW,315,0.4,4.0,62,0.00,,,0.00,WUHU216HW,2013-05-28 22:25:00,
2013-05-28 15:30:00,63.0,49.8,29.88,ENE,68,2.0,4.0,62,0.00,,,0.00,WUHU216HW,2013-05-28 22:30:00,
2013-05-28 15:31:00,63.0,49.8,29.88,ENE,68,2.0,4.0,62,0.00,,,0.00,WUHU216HW,2013-05-28 22:31:00,
2013-05-28 15:36:00,62.6,49.9,29.88,NW,315,2.5,5.1,63,0.00,,,0.00,WUHU216HW,2013-05-28 22:36:00,
2013-05-28 15:41:00,62.3,49.5,29.88,NNW,338,0.0,5.1,63,0.00,,,0.00,WUHU216HW,2013-05-28 22:41:00,
2013-05-28 15:46:00,62.6,50.2,29.88,NNE,23,4.7,4.7,64,0.00,,,0.00,WUHU216HW,2013-05-28 22:46:00,
2013-05-28 15:51:00,62.8,50.1,29.88,NE,45,2.9,4.7,63,0.00,,,0.00,WUHU216HW,2013-05-28 22:51:00,
2013-05-28 15:56:00,62.8,50.1,29.88,East,90,2.5,4.7,63,0.00,,,0.00,WUHU216HW,2013-05-28 22:56:00,
2013-05-28 16:01:00,62.6,49.9,29.88,NNE,23,1.1,3.4,63,0.00,,,0.00,WUHU216HW,2013-05-28 23:01:00,
2013-05-28 16:07:00,62.6,49.9,29.88,NE,45,2.9,2.9,63,0.00,,,0.00,WUHU216HW,2013-05-28 23:07:00,
2013-05-28 16:12:00,62.6,49.4,29.88,SE,135,3.4,3.4,62,0.00,,,0.00,WUHU216HW,2013-05-28 23:12:00,
2013-05-28 16:17:00,62.3,49.2,29.88,ESE,113,0.0,3.4,62,0.00,,,0.00,WUHU216HW,2013-05-28 23:17:00,
2013-05-28 16:22:00,62.3,49.5,29.88,East,90,3.1,3.4,63,0.00,,,0.00,WUHU216HW,2013-05-28 23:22:00,
2013-05-28 16:27:00,62.3,49.5,29.88,SE,135,0.4,3.1,63,0.00,,,0.00,WUHU216HW,2013-05-28 23:27:00,
2013-05-28 16:32:00,62.5,49.7,29.88,West,270,0.9,3.8,63,0.00,,,0.00,WUHU216HW,2013-05-28 23:32:00,
2013-05-28 16:37:00,62.8,50.1,29.88,NNW,338,0.4,3.8,63,0.00,,,0.00,WUHU216HW,2013-05-28 23:37:00,
2013-05-28 16:42:00,63.2,50.3,29.88,SW,225,0.9,2.0,63,0.00,,,0.00,WUHU216HW,2013-05-28 23:42:00,
2013-05-28 16:48:00,63.5,50.7,29.88,WNW,293,1.8,2.5,63,0.00,,,0.00,WUHU216HW,2013-05-28 23:48:00,
2013-05-28 16:53:00,63.5,50.7,29.88,WNW,293,1.6,2.5,63,0.00,,,0.00,WUHU216HW,2013-05-28 23:53:00,
2013-05-28 16:58:00,63.7,50.9,29.88,West,270,0.0,1.8,63,0.00,,,0.00,WUHU216HW,2013-05-28 23:58:00,
2013-05-28 17:03:00,63.9,51.0,29.87,South,180,2.0,2.0,63,0.00,,,0.00,WUHU216HW,2013-05-29 00:03:00,
2013-05-28 17:08:00,64.4,51.1,29.87,WSW,248,2.0,5.4,62,0.00,,,0.00,WUHU216HW,2013-05-29 00:08:00,
2013-05-28 17:13:00,64.6,50.9,29.87,WNW,293,3.1,5.4,61,0.00,,,0.00,WUHU216HW,2013-05-29 00:13:00,
2013-05-28 17:18:00,64.8,50.6,29.86,NW,315,2.9,4.5,60,0.00,,,0.00,WUHU216HW,2013-05-29 00:18:00,
2013-05-28 17:23:00,65.0,50.3,29.86,WNW,293,2.5,4.5,59,0.00,,,0.00,WUHU216HW,2013-05-29 00:23:00,
2013-05-28 17:24:00,65.0,50.3,29.86,WNW,293,1.3,4.5,59,0.00,,,0.00,WUHU216HW,2013-05-29 00:24:00,
2013-05-28 17:29:00,64.8,49.6,29.86,WSW,248,2.2,4.5,58,0.00,,,0.00,WUHU216HW,2013-05-29 00:29:00,
2013-05-28 17:34:00,64.8,49.6,29.85,West,270,2.7,7.2,58,0.00,,,0.00,WUHU216HW,2013-05-29 00:34:00,
2013-05-28 17:39:00,64.8,49.6,29.85,North,0,4.0,7.2,58,0.00,,,0.00,WUHU216HW,2013-05-29 00:39:00,
2013-05-28 17:44:00,64.6,49.4,29.85,NNW,338,1.1,6.3,58,0.00,,,0.00,WUHU216HW,2013-05-29 00:44:00,
2013-05-28 17:49:00,64.6,49.4,29.85,SW,225,2.5,3.6,58,0.00,,,0.00,WUHU216HW,2013-05-29 00:49:00,
2013-05-28 17:54:00,64.4,49.2,29.85,SE,135,2.9,4.5,58,0.00,,,0.00,WUHU216HW,2013-05-29 00:54:00,
2013-05-28 17:59:00,64.6,49.0,29.85,WSW,248,2.7,6.0,57,0.00,,,0.00,WUHU216HW,2013-05-29 00:59:00,
2013-05-28 18:04:00,64.6,48.4,29.85,WNW,293,1.1,6.0,56,0.00,,,0.00,WUHU216HW,2013-05-29 01:04:00,
2013-05-28 18:05:00,64.6,48.4,29.85,WNW,293,1.1,6.0,56,0.00,,,0.00,WUHU216HW,2013-05-29 01:05:00,
2013-05-28 18:10:00,64.3,48.2,29.85,NW,315,2.9,4.0,56,0.00,,,0.00,WUHU216HW,2013-05-29 01:10:00,
2013-05-28 18:15:00,63.9,48.2,29.85,WSW,248,0.4,4.0,57,0.00,,,0.00,WUHU216HW,2013-05-29 01:15:00,
2013-05-28 18:20:00,63.7,48.6,29.85,NW,315,0.0,4.0,58,0.00,,,0.00,WUHU216HW,2013-05-29 01:20:00,
2013-05-28 18:25:00,63.7,48.6,29.85,WSW,248,2.7,3.4,58,0.00,,,0.00,WUHU216HW,2013-05-29 01:25:00,
2013-05-28 18:30:00,63.5,48.4,29.85,NW,315,0.4,3.4,58,0.00,,,0.00,WUHU216HW,2013-05-29 01:30:00,
2013-05-28 18:35:00,63.5,49.0,29.84,ESE,113,0.4,2.2,59,0.00,,,0.00,WUHU216HW,2013-05-29 01:35:00,
2013-05-28 18:36:00,63.5,49.0,29.84,ESE,113,0.4,2.2,59,0.00,,,0.00,WUHU216HW,2013-05-29 01:36:00,
2013-05-28 18:41:00,63.4,48.2,29.84,East,90,0.0,2.5,58,0.00,,,0.00,WUHU216HW,2013-05-29 01:41:00,
2013-05-28 18:46:00,63.5,48.4,29.84,NW,315,2.2,2.5,58,0.00,,,0.00,WUHU216HW,2013-05-29 01:46:00,
2013-05-28 18:51:00,63.7,48.2,29.84,SW,225,1.8,6.5,57,0.00,,,0.00,WUHU216HW,2013-05-29 01:51:00,
2013-05-28 18:56:00,63.7,48.2,29.84,WSW,248,0.9,6.5,57,0.00,,,0.00,WUHU216HW,2013-05-29 01:56:00,
2013-05-28 19:01:00,63.7,48.2,29.84,SW,225,0.4,5.1,57,0.00,,,0.00,WUHU216HW,2013-05-29 02:01:00,
2013-05-28 19:06:00,63.7,48.2,29.84,West,270,1.1,3.1,57,0.00,,,0.00,WUHU216HW,2013-05-29 02:06:00,
2013-05-28 19:12:00,63.5,48.0,29.84,West,270,1.1,3.6,57,0.00,,,0.00,WUHU216HW,2013-05-29 02:12:00,
2013-05-28 19:17:00,63.5,48.0,29.84,WSW,248,0.9,3.6,57,0.00,,,0.00,WUHU216HW,2013-05-29 02:17:00,
2013-05-28 19:22:00,63.2,47.6,29.84,West,270,0.4,2.0,57,0.00,,,0.00,WUHU216HW,2013-05-29 02:22:00,
2013-05-28 19:27:00,63.0,48.0,29.84,SW,225,0.2,1.1,58,0.00,,,0.00,WUHU216HW,2013-05-29 02:27:00,
2013-05-28 19:32:00,62.8,47.8,29.84,WSW,248,0.0,1.6,58,0.00,,,0.00,WUHU216HW,2013-05-29 02:32:00,
2013-05-28 19:37:00,62.6,48.2,29.84,WSW,248,0.0,1.6,59,0.00,,,0.00,WUHU216HW,2013-05-29 02:37:00,
2013-05-28 19:42:00,62.3,48.2,29.84,WSW,248,0.0,0.7,60,0.00,,,0.00,WUHU216HW,2013-05-29 02:42:00,
2013-05-28 19:48:00,62.3,48.7,29.84,WSW,248,0.0,0.0,61,0.00,,,0.00,WUHU216HW,2013-05-29 02:48:00,
2013-05-28 19:53:00,62.1,48.5,29.85,WSW,248,0.0,0.0,61,0.00,,,0.00,WUHU216HW,2013-05-29 02:53:00,
2013-05-28 19:58:00,61.9,48.3,29.85,WSW,248,0.0,0.0,61,0.00,,,0.00,WUHU216HW,2013-05-29 02:58:00,
2013-05-28 20:03:00,61.7,48.3,29.85,WSW,248,0.0,0.0,61,0.00,,,0.00,WUHU216HW,2013-05-29 03:03:00,
2013-05-28 20:08:00,61.6,48.4,29.85,WSW,248,0.0,0.0,62,0.00,,,0.00,WUHU216HW,2013-05-29 03:08:00,
2013-05-28 20:13:00,61.2,48.2,29.85,WSW,248,0.0,0.0,62,0.00,,,0.00,WUHU216HW,2013-05-29 03:13:00,
2013-05-28 20:19:00,61.0,48.0,29.85,WSW,248,0.0,0.4,62,0.00,,,0.00,WUHU216HW,2013-05-29 03:19:00,
2013-05-28 20:24:00,60.8,48.3,29.85,WSW,248,0.0,0.4,63,0.00,,,0.00,WUHU216HW,2013-05-29 03:24:00,
2013-05-28 20:29:00,60.5,47.9,29.85,WSW,248,0.0,0.0,63,0.00,,,0.00,WUHU216HW,2013-05-29 03:29:00,
2013-05-28 20:34:00,60.3,48.1,29.84,WSW,248,0.0,0.0,64,0.00,,,0.00,WUHU216HW,2013-05-29 03:34:00,
2013-05-28 20:39:00,60.1,48.3,29.84,WSW,248,0.0,0.0,65,0.00,,,0.00,WUHU216HW,2013-05-29 03:39:00,
2013-05-28 20:44:00,59.9,47.7,29.84,WSW,248,0.0,0.0,64,0.00,,,0.00,WUHU216HW,2013-05-29 03:44:00,
2013-05-28 20:49:00,59.8,47.5,29.84,WSW,248,0.0,0.0,64,0.00,,,0.00,WUHU216HW,2013-05-29 03:49:00,
2013-05-28 20:50:00,59.8,47.5,29.84,WSW,248,0.0,0.0,64,0.00,,,0.00,WUHU216HW,2013-05-29 03:50:00,
2013-05-28 20:55:00,59.8,47.5,29.84,WSW,248,0.0,0.0,64,0.00,,,0.00,WUHU216HW,2013-05-29 03:55:00,
2013-05-28 21:00:00,59.6,47.8,29.84,WSW,248,0.0,0.0,65,0.00,,,0.00,WUHU216HW,2013-05-29 04:00:00,
2013-05-28 21:05:00,59.4,47.6,29.84,WSW,248,0.0,0.0,65,0.00,,,0.00,WUHU216HW,2013-05-29 04:05:00,
2013-05-28 21:10:00,59.4,48.1,29.84,WSW,248,0.0,0.0,66,0.00,,,0.00,WUHU216HW,2013-05-29 04:10:00,
2013-05-28 21:15:00,59.4,48.1,29.84,WSW,248,0.0,0.0,66,0.00,,,0.00,WUHU216HW,2013-05-29 04:15:00,
2013-05-28 21:20:00,59.0,47.7,29.84,WSW,248,0.0,0.0,66,0.00,,,0.00,WUHU216HW,2013-05-29 04:20:00,
2013-05-28 21:21:00,59.0,47.7,29.84,WSW,248,0.0,0.0,66,0.00,,,0.00,WUHU216HW,2013-05-29 04:21:00,
2013-05-28 21:26:00,58.9,47.9,29.84,WSW,248,0.0,0.0,67,0.00,,,0.00,WUHU216HW,2013-05-29 04:26:00,
2013-05-28 21:31:00,58.7,47.7,29.84,WSW,248,0.0,0.0,67,0.00,,,0.00,WUHU216HW,2013-05-29 04:31:00,
2013-05-28 21:36:00,58.5,47.5,29.84,WSW,248,0.0,0.0,67,0.00,,,0.00,WUHU216HW,2013-05-29 04:36:00,
2013-05-28 21:41:00,58.3,47.8,29.84,WSW,248,0.0,0.0,68,0.00,,,0.00,WUHU216HW,2013-05-29 04:41:00,
2013-05-28 21:46:00,58.1,47.6,29.84,WSW,248,0.0,0.0,68,0.00,,,0.00,WUHU216HW,2013-05-29 04:46:00,
2013-05-28 21:51:00,58.0,47.4,29.84,WSW,248,0.0,0.0,68,0.00,,,0.00,WUHU216HW,2013-05-29 04:51:00,
2013-05-28 21:56:00,58.0,47.4,29.84,WSW,248,0.0,0.0,68,0.00,,,0.00,WUHU216HW,2013-05-29 04:56:00,
2013-05-28 21:57:00,58.0,47.4,29.84,WSW,248,0.0,0.0,68,0.00,,,0.00,WUHU216HW,2013-05-29 04:57:00,
2013-05-28 22:02:00,57.8,47.3,29.84,WSW,248,0.0,0.7,68,0.00,,,0.00,WUHU216HW,2013-05-29 05:02:00,
2013-05-28 22:07:00,57.6,47.5,29.84,WSW,248,0.0,0.7,69,0.00,,,0.00,WUHU216HW,2013-05-29 05:07:00,
2013-05-28 22:12:00,57.6,47.5,29.83,WSW,248,0.0,0.0,69,0.00,,,0.00,WUHU216HW,2013-05-29 05:12:00,
2013-05-28 22:17:00,57.4,47.4,29.84,WSW,248,0.0,0.0,69,0.00,,,0.00,WUHU216HW,2013-05-29 05:17:00,
2013-05-28 22:22:00,57.6,47.5,29.84,WSW,248,0.0,0.0,69,0.00,,,0.00,WUHU216HW,2013-05-29 05:22:00,
2013-05-28 22:26:00,57.4,47.4,29.84,WSW,248,0.0,0.0,69,0.00,,,0.00,WUHU216HW,2013-05-29 05:26:00,
2013-05-28 22:27:00,57.6,47.5,29.83,WSW,248,0.0,0.0,69,0.00,,,0.00,WUHU216HW,2013-05-29 05:27:00,
2013-05-28 22:32:00,57.4,47.4,29.83,WSW,248,0.0,0.0,69,0.00,,,0.00,WUHU216HW,2013-05-29 05:32:00,
2013-05-28 22:33:00,57.2,47.2,29.83,WSW,248,0.0,0.0,69,0.00,,,0.00,WUHU216HW,2013-05-29 05:33:00,
2013-05-28 22:38:00,57.2,47.5,29.83,WSW,248,0.0,0.0,70,0.00,,,0.00,WUHU216HW,2013-05-29 05:38:00,
2013-05-28 22:42:00,57.1,47.3,29.83,WSW,248,0.0,0.0,70,0.00,,,0.00,WUHU216HW,2013-05-29 05:42:00,
2013-05-28 22:44:00,57.1,47.3,29.83,WSW,248,0.0,0.0,70,0.00,,,0.00,WUHU216HW,2013-05-29 05:44:00,
2013-05-28 22:47:00,56.9,47.2,29.83,WSW,248,0.0,0.0,70,0.00,,,0.00,WUHU216HW,2013-05-29 05:47:00,
2013-05-28 22:49:00,56.9,47.2,29.84,WSW,248,0.0,0.0,70,0.00,,,0.00,WUHU216HW,2013-05-29 05:49:00,
2013-05-28 22:54:00,56.7,47.4,29.83,WSW,248,0.0,0.0,71,0.00,,,0.00,WUHU216HW,2013-05-29 05:54:00,
2013-05-28 22:55:00,56.7,47.4,29.83,WSW,248,0.0,0.0,71,0.00,,,0.00,WUHU216HW,2013-05-29 05:55:00,
2013-05-28 22:59:00,56.5,47.3,29.83,WSW,248,0.0,0.0,71,0.00,,,0.00,WUHU216HW,2013-05-29 05:59:00,
2013-05-28 23:00:00,56.5,47.3,29.83,WSW,248,0.0,0.0,71,0.00,,,0.00,WUHU216HW,2013-05-29 06:00:00,
2013-05-28 23:04:00,56.3,47.1,29.83,WSW,248,0.0,0.4,71,0.00,,,0.00,WUHU216HW,2013-05-29 06:04:00,
2013-05-28 23:05:00,56.3,47.1,29.83,WSW,248,0.0,0.4,71,0.00,,,0.00,WUHU216HW,2013-05-29 06:05:00,
2013-05-28 23:09:00,56.2,46.9,29.83,WSW,248,0.0,0.4,71,0.00,,,0.00,WUHU216HW,2013-05-29 06:09:00,
2013-05-28 23:10:00,56.2,46.9,29.83,WSW,248,0.0,0.4,71,0.00,,,0.00,WUHU216HW,2013-05-29 06:10:00,
2013-05-28 23:14:00,56.2,46.9,29.83,WSW,248,0.0,0.0,71,0.00,,,0.00,WUHU216HW,2013-05-29 06:14:00,
2013-05-28 23:15:00,56.2,46.9,29.83,WSW,248,0.0,0.0,71,0.00,,,0.00,WUHU216HW,2013-05-29 06:15:00,
2013-05-28 23:20:00,56.0,46.7,29.83,WSW,248,0.0,1.1,71,0.00,,,0.00,WUHU216HW,2013-05-29 06:20:00,
2013-05-28 23:25:00,55.8,46.5,29.83,WSW,248,0.0,1.1,71,0.00,,,0.00,WUHU216HW,2013-05-29 06:25:00,
2013-05-28 23:30:00,55.8,46.3,29.83,WSW,248,0.0,0.4,70,0.00,,,0.00,WUHU216HW,2013-05-29 06:30:00,
2013-05-28 23:31:00,55.8,46.3,29.83,WSW,248,0.0,0.4,70,0.00,,,0.00,WUHU216HW,2013-05-29 06:31:00,
2013-05-28 23:35:00,55.8,46.3,29.83,WSW,248,0.0,0.4,70,0.00,,,0.00,WUHU216HW,2013-05-29 06:35:00,
2013-05-28 23:36:00,55.8,46.3,29.83,WSW,248,0.0,0.4,70,0.00,,,0.00,WUHU216HW,2013-05-29 06:36:00,
2013-05-28 23:40:00,55.8,45.8,29.83,WSW,248,0.0,0.0,69,0.00,,,0.00,WUHU216HW,2013-05-29 06:40:00,
2013-05-28 23:41:00,55.8,45.8,29.83,WSW,248,0.0,0.0,69,0.00,,,0.00,WUHU216HW,2013-05-29 06:41:00,
2013-05-28 23:45:00,55.8,45.8,29.83,NW,315,0.4,1.1,69,0.00,,,0.00,WUHU216HW,2013-05-29 06:45:00,
2013-05-28 23:46:00,55.8,45.8,29.82,NW,315,0.0,1.1,69,0.00,,,0.00,WUHU216HW,2013-05-29 06:46:00,
2013-05-28 23:51:00,55.8,45.4,29.82,NNW,338,0.0,1.3,68,0.00,,,0.00,WUHU216HW,2013-05-29 06:51:00,
2013-05-28 23:56:00,55.6,44.8,29.82,SSW,203,0.9,2.5,67,0.00,,,0.00,WUHU216HW,2013-05-29 06:56:00,
2013-05-28 23:57:00,55.6,44.8,29.82,SSW,203,0.4,2.5,67,0.00,,,0.00,WUHU216HW,2013-05-29 06:57:00,